sensor_id;sensor_type;location;lat;lon;timestamp;pressure;altitude;pressure_sealevel;temperature;humidity
40574;BME280;26283;49.020;8.644;2023-03-15T00:01:16;98976.53;;;11.58;54.63
40574;BME280;26283;49.020;8.644;2023-03-15T00:03:46;98973.25;;;11.56;54.83
40574;BME280;26283;49.020;8.644;2023-03-15T00:06:12;98975.97;;;11.56;54.68
40574;BME280;26283;49.020;8.644;2023-03-15T00:08:37;98980.53;;;11.55;54.65
40574;BME280;26283;49.020;8.644;2023-03-15T00:11:03;98982.63;;;11.53;54.62
40574;BME280;26283;49.020;8.644;2023-03-15T00:13:29;98995.31;;;11.53;54.56
40574;BME280;26283;49.020;8.644;2023-03-15T00:15:57;98999.06;;;11.52;54.60
40574;BME280;26283;49.020;8.644;2023-03-15T00:18:23;99000.09;;;11.51;54.63
40574;BME280;26283;49.020;8.644;2023-03-15T00:20:49;99003.84;;;11.50;54.58
40574;BME280;26283;49.020;8.644;2023-03-15T00:23:15;99015.69;;;11.49;54.61
40574;BME280;26283;49.020;8.644;2023-03-15T00:25:45;99014.88;;;11.48;54.58
40574;BME280;26283;49.020;8.644;2023-03-15T00:28:12;99018.66;;;11.47;54.68
40574;BME280;26283;49.020;8.644;2023-03-15T00:30:37;99023.22;;;11.47;54.61
40574;BME280;26283;49.020;8.644;2023-03-15T00:33:03;99019.94;;;11.45;54.63
40574;BME280;26283;49.020;8.644;2023-03-15T00:35:32;99019.13;;;11.44;54.66
40574;BME280;26283;49.020;8.644;2023-03-15T00:37:58;99028.25;;;11.43;54.66
40574;BME280;26283;49.020;8.644;2023-03-15T00:40:24;99032.84;;;11.43;54.71
40574;BME280;26283;49.020;8.644;2023-03-15T00:42:50;99041.16;;;11.41;54.75
40574;BME280;26283;49.020;8.644;2023-03-15T00:45:17;99044.91;;;11.40;54.71
40574;BME280;26283;49.020;8.644;2023-03-15T00:47:43;99050.31;;;11.40;54.70
40574;BME280;26283;49.020;8.644;2023-03-15T00:50:09;99049.69;;;11.38;54.68
40574;BME280;26283;49.020;8.644;2023-03-15T00:52:35;99045.34;;;11.37;54.70
40574;BME280;26283;49.020;8.644;2023-03-15T00:55:01;99053.44;;;11.37;54.71
40574;BME280;26283;49.020;8.644;2023-03-15T00:57:26;99059.06;;;11.36;54.73
40574;BME280;26283;49.020;8.644;2023-03-15T00:59:52;99063.66;;;11.35;54.69
40574;BME280;26283;49.020;8.644;2023-03-15T01:02:17;99061.16;;;11.33;54.69
40574;BME280;26283;49.020;8.644;2023-03-15T01:04:47;99067.41;;;11.34;54.65
40574;BME280;26283;49.020;8.644;2023-03-15T01:07:12;99064.09;;;11.32;54.66
40574;BME280;26283;49.020;8.644;2023-03-15T01:09:38;99062.44;;;11.31;54.72
40574;BME280;26283;49.020;8.644;2023-03-15T01:12:03;99067.03;;;11.30;54.71
40574;BME280;26283;49.020;8.644;2023-03-15T01:14:29;99068.28;;;11.28;54.69
40574;BME280;26283;49.020;8.644;2023-03-15T01:16:54;99070.16;;;11.27;54.60
40574;BME280;26283;49.020;8.644;2023-03-15T01:19:19;99073.91;;;11.26;54.56
40574;BME280;26283;49.020;8.644;2023-03-15T01:21:45;99082.00;;;11.26;54.61
40574;BME280;26283;49.020;8.644;2023-03-15T01:24:13;99076.88;;;11.25;54.62
40574;BME280;26283;49.020;8.644;2023-03-15T01:26:39;99075.22;;;11.24;54.66
40574;BME280;26283;49.020;8.644;2023-03-15T01:29:05;99077.91;;;11.24;54.54
40574;BME280;26283;49.020;8.644;2023-03-15T01:31:31;99080.84;;;11.22;54.58
40574;BME280;26283;49.020;8.644;2023-03-15T01:33:57;99075.66;;;11.21;54.65
40574;BME280;26283;49.020;8.644;2023-03-15T01:36:23;99076.72;;;11.20;54.65
40574;BME280;26283;49.020;8.644;2023-03-15T01:38:49;99082.12;;;11.20;54.63
40574;BME280;26283;49.020;8.644;2023-03-15T01:41:16;99079.63;;;11.18;54.60
40574;BME280;26283;49.020;8.644;2023-03-15T01:43:42;99073.44;;;11.18;54.60
40574;BME280;26283;49.020;8.644;2023-03-15T01:46:24;99092.31;;;11.18;54.66
40574;BME280;26283;49.020;8.644;2023-03-15T01:51:19;99077.63;;;11.14;54.54
40574;BME280;26283;49.020;8.644;2023-03-15T01:53:54;99088.41;;;11.14;54.58
40574;BME280;26283;49.020;8.644;2023-03-15T01:56:23;99092.16;;;11.13;54.64
40574;BME280;26283;49.020;8.644;2023-03-15T01:58:50;99089.69;;;11.11;54.48
40574;BME280;26283;49.020;8.644;2023-03-15T02:01:17;99088.03;;;11.10;54.54
40574;BME280;26283;49.020;8.644;2023-03-15T02:03:46;99092.59;;;11.10;54.55
40574;BME280;26283;49.020;8.644;2023-03-15T02:06:18;99096.34;;;11.09;54.51
40574;BME280;26283;49.020;8.644;2023-03-15T02:08:49;99098.44;;;11.07;54.48
40574;BME280;26283;49.020;8.644;2023-03-15T02:11:18;99095.75;;;11.07;54.51
40574;BME280;26283;49.020;8.644;2023-03-15T02:13:47;99101.34;;;11.05;54.58
40574;BME280;26283;49.020;8.644;2023-03-15T02:16:12;99103.22;;;11.05;54.56
40574;BME280;26283;49.020;8.644;2023-03-15T02:18:38;99107.00;;;11.04;54.55
40574;BME280;26283;49.020;8.644;2023-03-15T02:21:28;99110.16;;;11.01;54.53
40574;BME280;26283;49.020;8.644;2023-03-15T02:24:25;99106.41;;;11.02;54.75
40574;BME280;26283;49.020;8.644;2023-03-15T02:26:54;99115.53;;;11.01;54.73
40574;BME280;26283;49.020;8.644;2023-03-15T02:29:21;99113.91;;;10.99;54.37
40574;BME280;26283;49.020;8.644;2023-03-15T02:31:48;99116.81;;;10.98;54.39
40574;BME280;26283;49.020;8.644;2023-03-15T02:34:14;99128.88;;;10.95;54.45
40574;BME280;26283;49.020;8.644;2023-03-15T02:36:39;99135.31;;;10.94;54.48
40574;BME280;26283;49.020;8.644;2023-03-15T02:39:15;99132.59;;;10.94;54.50
40574;BME280;26283;49.020;8.644;2023-03-15T02:41:45;99146.31;;;10.93;54.61
40574;BME280;26283;49.020;8.644;2023-03-15T02:44:16;99141.13;;;10.91;54.52
40574;BME280;26283;49.020;8.644;2023-03-15T02:46:44;99149.22;;;10.91;54.58
40574;BME280;26283;49.020;8.644;2023-03-15T02:49:11;99155.66;;;10.90;54.43
40574;BME280;26283;49.020;8.644;2023-03-15T02:51:37;99154.84;;;10.90;54.50
40574;BME280;26283;49.020;8.644;2023-03-15T02:54:02;99167.72;;;10.88;54.52
40574;BME280;26283;49.020;8.644;2023-03-15T02:56:28;99178.50;;;10.88;54.54
40574;BME280;26283;49.020;8.644;2023-03-15T02:58:53;99178.72;;;10.86;54.59
40574;BME280;26283;49.020;8.644;2023-03-15T03:01:18;99182.47;;;10.85;54.57
40574;BME280;26283;49.020;8.644;2023-03-15T03:03:45;99187.03;;;10.85;54.59
40574;BME280;26283;49.020;8.644;2023-03-15T03:06:13;99186.19;;;10.84;54.66
40574;BME280;26283;49.020;8.644;2023-03-15T03:08:39;99197.47;;;10.81;54.71
40574;BME280;26283;49.020;8.644;2023-03-15T03:11:05;99195.81;;;10.80;54.63
40574;BME280;26283;49.020;8.644;2023-03-15T03:13:31;99202.84;;;10.81;54.61
40574;BME280;26283;49.020;8.644;2023-03-15T03:15:56;99202.03;;;10.81;54.61
40574;BME280;26283;49.020;8.644;2023-03-15T03:18:25;99204.94;;;10.79;54.66
40574;BME280;26283;49.020;8.644;2023-03-15T03:20:54;99214.06;;;10.78;54.57
40574;BME280;26283;49.020;8.644;2023-03-15T03:23:22;99214.28;;;10.77;54.67
40574;BME280;26283;49.020;8.644;2023-03-15T03:25:53;99220.72;;;10.76;54.55
40574;BME280;26283;49.020;8.644;2023-03-15T03:28:19;99227.16;;;10.75;54.58
40574;BME280;26283;49.020;8.644;2023-03-15T03:30:45;99217.41;;;10.74;54.65
40574;BME280;26283;49.020;8.644;2023-03-15T03:33:10;99216.59;;;10.73;54.60
40574;BME280;26283;49.020;8.644;2023-03-15T03:35:36;99222.19;;;10.72;54.56
40574;BME280;26283;49.020;8.644;2023-03-15T03:38:01;99220.56;;;10.71;54.64
40574;BME280;26283;49.020;8.644;2023-03-15T03:40:26;99228.84;;;10.69;54.57
40574;BME280;26283;49.020;8.644;2023-03-15T03:42:51;99229.06;;;10.68;54.53
40574;BME280;26283;49.020;8.644;2023-03-15T03:45:17;99224.50;;;10.68;54.65
40574;BME280;26283;49.020;8.644;2023-03-15T03:47:42;99230.94;;;10.67;54.60
40574;BME280;26283;49.020;8.644;2023-03-15T03:50:09;99227.62;;;10.65;54.62
40574;BME280;26283;49.020;8.644;2023-03-15T03:52:35;99234.06;;;10.64;54.53
40574;BME280;26283;49.020;8.644;2023-03-15T03:55:00;99237.81;;;10.63;54.54
40574;BME280;26283;49.020;8.644;2023-03-15T03:57:25;99236.97;;;10.62;54.55
40574;BME280;26283;49.020;8.644;2023-03-15T03:59:51;99246.94;;;10.62;54.53
40574;BME280;26283;49.020;8.644;2023-03-15T04:02:16;99251.75;;;10.60;54.45
40574;BME280;26283;49.020;8.644;2023-03-15T04:04:42;99252.78;;;10.59;54.54
40574;BME280;26283;49.020;8.644;2023-03-15T04:07:07;99263.56;;;10.59;54.60
40574;BME280;26283;49.020;8.644;2023-03-15T04:09:33;99258.62;;;10.56;54.62
40574;BME280;26283;49.020;8.644;2023-03-15T04:12:01;99259.44;;;10.56;54.60
40574;BME280;26283;49.020;8.644;2023-03-15T04:14:27;99267.75;;;10.55;54.54
40574;BME280;26283;49.020;8.644;2023-03-15T04:16:53;99276.87;;;10.54;54.58
40574;BME280;26283;49.020;8.644;2023-03-15T04:19:18;99271.47;;;10.54;54.56
40574;BME280;26283;49.020;8.644;2023-03-15T04:21:44;99273.56;;;10.52;54.53
40574;BME280;26283;49.020;8.644;2023-03-15T04:24:11;99278.13;;;10.51;54.62
40574;BME280;26283;49.020;8.644;2023-03-15T04:26:36;99275.66;;;10.50;54.55
40574;BME280;26283;49.020;8.644;2023-03-15T04:29:02;99271.09;;;10.50;54.63
40574;BME280;26283;49.020;8.644;2023-03-15T04:31:28;99273.16;;;10.48;54.54
40574;BME280;26283;49.020;8.644;2023-03-15T04:33:53;99273.38;;;10.47;54.60
40574;BME280;26283;49.020;8.644;2023-03-15T04:36:20;99274.41;;;10.46;54.67
40574;BME280;26283;49.020;8.644;2023-03-15T04:38:46;99278.16;;;10.45;54.65
40574;BME280;26283;49.020;8.644;2023-03-15T04:41:16;99277.34;;;10.44;54.66
40574;BME280;26283;49.020;8.644;2023-03-15T04:43:42;99275.69;;;10.43;54.66
40574;BME280;26283;49.020;8.644;2023-03-15T04:46:08;99275.91;;;10.42;54.60
40574;BME280;26283;49.020;8.644;2023-03-15T04:48:34;99267.81;;;10.42;54.58
40574;BME280;26283;49.020;8.644;2023-03-15T04:50:59;99270.72;;;10.40;54.52
40574;BME280;26283;49.020;8.644;2023-03-15T04:53:25;99269.91;;;10.40;54.61
40574;BME280;26283;49.020;8.644;2023-03-15T04:55:50;99271.78;;;10.39;54.52
40574;BME280;26283;49.020;8.644;2023-03-15T04:58:16;99273.03;;;10.37;54.62
40574;BME280;26283;49.020;8.644;2023-03-15T05:00:42;99266.84;;;10.36;54.63
40574;BME280;26283;49.020;8.644;2023-03-15T05:03:07;99265.41;;;10.34;54.62
40574;BME280;26283;49.020;8.644;2023-03-15T05:05:33;99267.06;;;10.35;54.58
40574;BME280;26283;49.020;8.644;2023-03-15T05:07:58;99275.34;;;10.33;54.62
40574;BME280;26283;49.020;8.644;2023-03-15T05:10:24;99265.62;;;10.32;54.55
40574;BME280;26283;49.020;8.644;2023-03-15T05:12:50;99272.88;;;10.32;54.62
40574;BME280;26283;49.020;8.644;2023-03-15T05:15:16;99266.88;;;10.29;54.63
40574;BME280;26283;49.020;8.644;2023-03-15T05:17:41;99276.00;;;10.28;54.68
40574;BME280;26283;49.020;8.644;2023-03-15T05:20:11;99275.16;;;10.28;54.67
40574;BME280;26283;49.020;8.644;2023-03-15T05:22:37;99279.94;;;10.26;54.58
40574;BME280;26283;49.020;8.644;2023-03-15T05:25:03;99276.41;;;10.25;54.58
40574;BME280;26283;49.020;8.644;2023-03-15T05:27:29;99274.75;;;10.24;54.65
40574;BME280;26283;49.020;8.644;2023-03-15T05:29:56;99278.50;;;10.23;54.61
40574;BME280;26283;49.020;8.644;2023-03-15T05:32:22;99276.63;;;10.24;54.49
40574;BME280;26283;49.020;8.644;2023-03-15T05:34:51;99281.41;;;10.22;54.53
40574;BME280;26283;49.020;8.644;2023-03-15T05:37:20;99278.94;;;10.20;54.49
40574;BME280;26283;49.020;8.644;2023-03-15T05:39:46;99280.78;;;10.20;54.53
40574;BME280;26283;49.020;8.644;2023-03-15T05:42:11;99279.97;;;10.19;54.52
40574;BME280;26283;49.020;8.644;2023-03-15T05:44:37;99291.75;;;10.18;54.53
40574;BME280;26283;49.020;8.644;2023-03-15T05:47:03;99289.28;;;10.17;54.52
40574;BME280;26283;49.020;8.644;2023-03-15T05:49:28;99295.72;;;10.16;54.51
40574;BME280;26283;49.020;8.644;2023-03-15T05:51:53;99302.97;;;10.15;54.47
40574;BME280;26283;49.020;8.644;2023-03-15T05:54:19;99295.09;;;10.14;54.39
40574;BME280;26283;49.020;8.644;2023-03-15T05:56:44;99292.63;;;10.12;54.42
40574;BME280;26283;49.020;8.644;2023-03-15T05:59:09;99290.97;;;10.11;54.44
40574;BME280;26283;49.020;8.644;2023-03-15T06:01:35;99295.53;;;10.11;54.47
40574;BME280;26283;49.020;8.644;2023-03-15T06:04:00;99301.75;;;10.11;54.47
40574;BME280;26283;49.020;8.644;2023-03-15T06:06:25;99303.81;;;10.09;54.46
40574;BME280;26283;49.020;8.644;2023-03-15T06:08:51;99297.81;;;10.07;54.43
40574;BME280;26283;49.020;8.644;2023-03-15T06:11:16;99301.56;;;10.06;54.54
40574;BME280;26283;49.020;8.644;2023-03-15T06:13:41;99306.94;;;10.06;54.65
40574;BME280;26283;49.020;8.644;2023-03-15T06:16:07;99307.97;;;10.05;54.74
40574;BME280;26283;49.020;8.644;2023-03-15T06:18:32;99309.00;;;10.04;54.74
40574;BME280;26283;49.020;8.644;2023-03-15T06:20:57;99317.31;;;10.03;54.75
40574;BME280;26283;49.020;8.644;2023-03-15T06:23:23;99316.47;;;10.02;54.91
40574;BME280;26283;49.020;8.644;2023-03-15T06:25:48;99325.59;;;10.01;54.83
40574;BME280;26283;49.020;8.644;2023-03-15T06:28:13;99319.59;;;9.99;54.90
40574;BME280;26283;49.020;8.644;2023-03-15T06:30:39;99330.37;;;9.99;54.95
40574;BME280;26283;49.020;8.644;2023-03-15T06:33:05;99335.75;;;9.99;54.91
40574;BME280;26283;49.020;8.644;2023-03-15T06:35:30;99327.88;;;9.97;54.97
40574;BME280;26283;49.020;8.644;2023-03-15T06:37:55;99337.00;;;9.96;54.91
40574;BME280;26283;49.020;8.644;2023-03-15T06:40:21;99332.69;;;9.95;54.95
40574;BME280;26283;49.020;8.644;2023-03-15T06:42:46;99341.56;;;9.96;54.97
40574;BME280;26283;49.020;8.644;2023-03-15T06:45:11;99345.31;;;9.95;55.03
40574;BME280;26283;49.020;8.644;2023-03-15T06:47:37;99343.66;;;9.94;55.00
40574;BME280;26283;49.020;8.644;2023-03-15T06:50:03;99344.47;;;9.94;55.11
40574;BME280;26283;49.020;8.644;2023-03-15T06:52:28;99343.03;;;9.92;55.11
40574;BME280;26283;49.020;8.644;2023-03-15T06:54:54;99360.84;;;9.93;55.13
40574;BME280;26283;49.020;8.644;2023-03-15T06:57:19;99358.38;;;9.91;55.17
40574;BME280;26283;49.020;8.644;2023-03-15T06:59:45;99368.31;;;9.91;55.18
40574;BME280;26283;49.020;8.644;2023-03-15T07:02:15;99357.75;;;9.89;55.19
40574;BME280;26283;49.020;8.644;2023-03-15T07:04:41;99365.81;;;9.89;55.22
40574;BME280;26283;49.020;8.644;2023-03-15T07:07:09;99366.66;;;9.90;55.17
40574;BME280;26283;49.020;8.644;2023-03-15T07:09:34;99359.63;;;9.89;55.22
40574;BME280;26283;49.020;8.644;2023-03-15T07:12:00;99356.91;;;9.89;55.25
40574;BME280;26283;49.020;8.644;2023-03-15T07:14:25;99353.41;;;9.88;55.21
40574;BME280;26283;49.020;8.644;2023-03-15T07:16:50;99358.78;;;9.88;55.17
40574;BME280;26283;49.020;8.644;2023-03-15T07:19:16;99363.34;;;9.88;55.18
40574;BME280;26283;49.020;8.644;2023-03-15T07:21:41;99365.00;;;9.89;55.27
40574;BME280;26283;49.020;8.644;2023-03-15T07:24:07;99357.94;;;9.88;55.29
40574;BME280;26283;49.020;8.644;2023-03-15T07:26:32;99358.78;;;9.88;55.29
40574;BME280;26283;49.020;8.644;2023-03-15T07:28:57;99360.66;;;9.88;55.33
40574;BME280;26283;49.020;8.644;2023-03-15T07:31:23;99362.50;;;9.87;55.32
40574;BME280;26283;49.020;8.644;2023-03-15T07:33:48;99370.38;;;9.89;55.36
40574;BME280;26283;49.020;8.644;2023-03-15T07:36:13;99365.00;;;9.89;55.31
40574;BME280;26283;49.020;8.644;2023-03-15T07:38:39;99369.56;;;9.88;55.39
40574;BME280;26283;49.020;8.644;2023-03-15T07:41:06;99373.91;;;9.89;55.41
40574;BME280;26283;49.020;8.644;2023-03-15T07:43:33;99371.22;;;9.89;55.41
40574;BME280;26283;49.020;8.644;2023-03-15T07:45:58;99368.50;;;9.89;55.37
40574;BME280;26283;49.020;8.644;2023-03-15T07:48:24;99368.50;;;9.89;55.41
40574;BME280;26283;49.020;8.644;2023-03-15T07:50:49;99379.06;;;9.91;55.22
40574;BME280;26283;49.020;8.644;2023-03-15T07:53:15;99387.97;;;9.91;55.18
40574;BME280;26283;49.020;8.644;2023-03-15T07:55:40;99388.81;;;9.92;55.20
40574;BME280;26283;49.020;8.644;2023-03-15T07:58:06;99385.06;;;9.93;55.26
40574;BME280;26283;49.020;8.644;2023-03-15T08:00:31;99389.41;;;9.94;55.31
40574;BME280;26283;49.020;8.644;2023-03-15T08:02:57;99384.88;;;9.94;55.35
40574;BME280;26283;49.020;8.644;2023-03-15T08:05:23;99390.25;;;9.94;55.30
40574;BME280;26283;49.020;8.644;2023-03-15T08:18:09;99386.06;;;9.98;55.21
40574;BME280;26283;49.020;8.644;2023-03-15T08:20:34;99388.56;;;10.00;55.18
40574;BME280;26283;49.020;8.644;2023-03-15T08:23:00;99402.84;;;10.01;56.04
40574;BME280;26283;49.020;8.644;2023-03-15T08:25:26;99411.31;;;10.04;56.33
40574;BME280;26283;49.020;8.644;2023-03-15T08:27:51;99408.44;;;10.06;56.33
40574;BME280;26283;49.020;8.644;2023-03-15T08:30:18;99410.91;;;10.07;56.32
40574;BME280;26283;49.020;8.644;2023-03-15T08:32:45;99419.59;;;10.09;56.32
40574;BME280;26283;49.020;8.644;2023-03-15T08:35:12;99421.47;;;10.09;56.30
40574;BME280;26283;49.020;8.644;2023-03-15T08:37:38;99410.50;;;10.10;56.28
40574;BME280;26283;49.020;8.644;2023-03-15T08:40:05;99421.87;;;10.12;56.26
40574;BME280;26283;49.020;8.644;2023-03-15T08:42:35;99413.81;;;10.12;56.29
40574;BME280;26283;49.020;8.644;2023-03-15T08:45:03;99419.81;;;10.14;56.28
40574;BME280;26283;49.020;8.644;2023-03-15T08:47:28;99426.84;;;10.15;56.29
40574;BME280;26283;49.020;8.644;2023-03-15T08:49:54;99415.03;;;10.16;56.31
40574;BME280;26283;49.020;8.644;2023-03-15T08:52:19;99422.06;;;10.17;56.29
40574;BME280;26283;49.020;8.644;2023-03-15T08:54:46;99422.69;;;10.19;56.30
40574;BME280;26283;49.020;8.644;2023-03-15T08:57:11;99420.81;;;10.20;56.28
40574;BME280;26283;49.020;8.644;2023-03-15T08:59:37;99425.19;;;10.21;56.31
40574;BME280;26283;49.020;8.644;2023-03-15T09:02:03;99436.78;;;10.21;56.30
40574;BME280;26283;49.020;8.644;2023-03-15T09:04:29;99434.72;;;10.23;56.29
40574;BME280;26283;49.020;8.644;2023-03-15T09:06:55;99436.34;;;10.24;56.27
40574;BME280;26283;49.020;8.644;2023-03-15T09:09:20;99430.16;;;10.24;56.26
40574;BME280;26283;49.020;8.644;2023-03-15T09:11:46;99436.97;;;10.26;56.24
40574;BME280;26283;49.020;8.644;2023-03-15T09:14:11;99436.78;;;10.28;56.22
40574;BME280;26283;49.020;8.644;2023-03-15T09:16:37;99433.03;;;10.29;56.23
40574;BME280;26283;49.020;8.644;2023-03-15T09:19:02;99433.66;;;10.31;56.22
40574;BME280;26283;49.020;8.644;2023-03-15T09:21:28;99435.31;;;10.32;56.21
40574;BME280;26283;49.020;8.644;2023-03-15T09:23:53;99438.84;;;10.33;56.20
40574;BME280;26283;49.020;8.644;2023-03-15T09:26:18;99441.53;;;10.33;56.19
40574;BME280;26283;49.020;8.644;2023-03-15T09:28:44;99448.34;;;10.35;56.20
40574;BME280;26283;49.020;8.644;2023-03-15T09:31:09;99443.78;;;10.36;56.16
40574;BME280;26283;49.020;8.644;2023-03-15T09:33:35;99447.09;;;10.38;56.14
40574;BME280;26283;49.020;8.644;2023-03-15T09:36:01;99446.06;;;10.39;56.18
40574;BME280;26283;49.020;8.644;2023-03-15T09:38:26;99438.00;;;10.39;56.19
40574;BME280;26283;49.020;8.644;2023-03-15T09:40:56;99440.44;;;10.40;56.15
40574;BME280;26283;49.020;8.644;2023-03-15T09:46:21;99447.28;;;10.43;56.12
40574;BME280;26283;49.020;8.644;2023-03-15T09:48:53;99455.34;;;10.43;56.10
40574;BME280;26283;49.020;8.644;2023-03-15T09:54:14;99451.41;;;10.45;56.12
40574;BME280;26283;49.020;8.644;2023-03-15T09:57:04;99447.88;;;10.45;56.11
40574;BME280;26283;49.020;8.644;2023-03-15T09:59:42;99446.63;;;10.47;56.10
40574;BME280;26283;49.020;8.644;2023-03-15T10:02:27;99452.66;;;10.49;56.08
40574;BME280;26283;49.020;8.644;2023-03-15T10:05:15;99453.69;;;10.48;56.07
40574;BME280;26283;49.020;8.644;2023-03-15T10:07:44;99453.47;;;10.50;56.08
40574;BME280;26283;49.020;8.644;2023-03-15T10:10:32;99463.22;;;10.51;56.10
40574;BME280;26283;49.020;8.644;2023-03-15T10:13:32;99455.75;;;10.53;56.12
40574;BME280;26283;49.020;8.644;2023-03-15T10:19:13;99453.88;;;10.53;56.08
40574;BME280;26283;49.020;8.644;2023-03-15T10:24:21;99473.34;;;10.55;56.13
40574;BME280;26283;49.020;8.644;2023-03-15T10:26:50;99472.31;;;10.56;56.17
40574;BME280;26283;49.020;8.644;2023-03-15T10:29:19;99475.84;;;10.57;56.14
40574;BME280;26283;49.020;8.644;2023-03-15T10:31:45;99477.50;;;10.58;56.13
40574;BME280;26283;49.020;8.644;2023-03-15T10:34:12;99470.03;;;10.60;56.13
40574;BME280;26283;49.020;8.644;2023-03-15T10:36:47;99475.41;;;10.60;56.14
40574;BME280;26283;49.020;8.644;2023-03-15T10:39:14;99471.66;;;10.61;56.16
40574;BME280;26283;49.020;8.644;2023-03-15T10:41:45;99476.00;;;10.62;56.15
40574;BME280;26283;49.020;8.644;2023-03-15T10:44:20;99478.69;;;10.62;56.13
40574;BME280;26283;49.020;8.644;2023-03-15T10:49:32;99479.09;;;10.65;56.14
40574;BME280;26283;49.020;8.644;2023-03-15T10:51:58;99474.53;;;10.66;56.16
40574;BME280;26283;49.020;8.644;2023-03-15T10:54:24;99473.72;;;10.65;56.20
40574;BME280;26283;49.020;8.644;2023-03-15T10:59:22;99475.16;;;10.68;56.21
40574;BME280;26283;49.020;8.644;2023-03-15T11:02:14;99478.69;;;10.69;56.21
40574;BME280;26283;49.020;8.644;2023-03-15T11:04:59;99489.25;;;10.70;56.21
40574;BME280;26283;49.020;8.644;2023-03-15T11:07:26;99502.72;;;10.70;56.22
40574;BME280;26283;49.020;8.644;2023-03-15T11:09:53;99503.56;;;10.71;56.23
40574;BME280;26283;49.020;8.644;2023-03-15T11:12:27;99500.84;;;10.71;56.25
40574;BME280;26283;49.020;8.644;2023-03-15T11:15:04;99502.31;;;10.73;56.28
40574;BME280;26283;49.020;8.644;2023-03-15T11:17:33;99502.31;;;10.73;56.27
40574;BME280;26283;49.020;8.644;2023-03-15T11:20:01;99515.78;;;10.73;56.28
40574;BME280;26283;49.020;8.644;2023-03-15T11:22:45;99509.56;;;10.73;56.27
40574;BME280;26283;49.020;8.644;2023-03-15T11:25:14;99512.87;;;10.75;56.29
40574;BME280;26283;49.020;8.644;2023-03-15T11:27:40;99513.09;;;10.73;56.29
40574;BME280;26283;49.020;8.644;2023-03-15T11:30:14;99524.50;;;10.75;56.31
40574;BME280;26283;49.020;8.644;2023-03-15T11:32:40;99520.13;;;10.74;56.28
40574;BME280;26283;49.020;8.644;2023-03-15T11:35:13;99524.28;;;10.77;56.27
40574;BME280;26283;49.020;8.644;2023-03-15T11:37:52;99520.75;;;10.76;56.28
40574;BME280;26283;49.020;8.644;2023-03-15T11:40:28;99519.91;;;10.76;56.26
40574;BME280;26283;49.020;8.644;2023-03-15T11:43:00;99519.91;;;10.76;56.25
40574;BME280;26283;49.020;8.644;2023-03-15T11:45:37;99518.88;;;10.77;56.25
40574;BME280;26283;49.020;8.644;2023-03-15T11:48:14;99524.28;;;10.77;56.24
40574;BME280;26283;49.020;8.644;2023-03-15T11:50:42;99509.97;;;10.76;56.22
40574;BME280;26283;49.020;8.644;2023-03-15T11:53:12;99516.19;;;10.77;56.23
40574;BME280;26283;49.020;8.644;2023-03-15T11:55:39;99507.06;;;10.78;56.21
40574;BME280;26283;49.020;8.644;2023-03-15T12:01:03;99515.97;;;10.78;56.21
40574;BME280;26283;49.020;8.644;2023-03-15T12:03:35;99515.16;;;10.78;56.19
40574;BME280;26283;49.020;8.644;2023-03-15T12:08:54;99516.81;;;10.79;56.16
40574;BME280;26283;49.020;8.644;2023-03-15T12:16:29;99515.97;;;10.78;56.11
40574;BME280;26283;49.020;8.644;2023-03-15T12:18:57;99518.66;;;10.78;56.10
40574;BME280;26283;49.020;8.644;2023-03-15T12:21:33;99519.50;;;10.79;56.09
40574;BME280;26283;49.020;8.644;2023-03-15T12:24:04;99510.59;;;10.78;56.09
40574;BME280;26283;49.020;8.644;2023-03-15T12:26:39;99516.81;;;10.79;56.06
40574;BME280;26283;49.020;8.644;2023-03-15T12:29:16;99515.97;;;10.78;56.07
40574;BME280;26283;49.020;8.644;2023-03-15T12:31:45;99508.94;;;10.77;56.06
40574;BME280;26283;49.020;8.644;2023-03-15T12:34:22;99515.97;;;10.78;56.03
40574;BME280;26283;49.020;8.644;2023-03-15T12:36:51;99508.72;;;10.79;56.02
40574;BME280;26283;49.020;8.644;2023-03-15T12:41:45;99504.97;;;10.80;55.98
40574;BME280;26283;49.020;8.644;2023-03-15T12:51:58;99505.19;;;10.78;55.91
40574;BME280;26283;49.020;8.644;2023-03-15T12:54:41;99505.19;;;10.78;55.87
40574;BME280;26283;49.020;8.644;2023-03-15T12:57:13;99504.38;;;10.78;55.88
40574;BME280;26283;49.020;8.644;2023-03-15T12:59:53;99500.84;;;10.77;55.87
40574;BME280;26283;49.020;8.644;2023-03-15T13:02:31;99501.66;;;10.78;55.85
40574;BME280;26283;49.020;8.644;2023-03-15T13:05:11;99500.84;;;10.77;55.85
40574;BME280;26283;49.020;8.644;2023-03-15T13:18:25;99496.50;;;10.76;55.85
40574;BME280;26283;49.020;8.644;2023-03-15T13:21:14;99496.50;;;10.76;55.84
40574;BME280;26283;49.020;8.644;2023-03-15T13:23:42;99501.88;;;10.76;55.83
40574;BME280;26283;49.020;8.644;2023-03-15T13:29:00;99498.34;;;10.76;55.83
40574;BME280;26283;49.020;8.644;2023-03-15T13:31:28;99510.19;;;10.75;55.81
40574;BME280;26283;49.020;8.644;2023-03-15T13:33:56;99506.44;;;10.76;55.79
40574;BME280;26283;49.020;8.644;2023-03-15T13:36:25;99496.69;;;10.75;55.80
40574;BME280;26283;49.020;8.644;2023-03-15T13:38:53;99502.09;;;10.75;55.79
40574;BME280;26283;49.020;8.644;2023-03-15T13:41:27;99498.34;;;10.76;55.79
40574;BME280;26283;49.020;8.644;2023-03-15T13:43:55;99494.84;;;10.75;55.80
40574;BME280;26283;49.020;8.644;2023-03-15T13:46:23;99489.66;;;10.74;55.77
40574;BME280;26283;49.020;8.644;2023-03-15T13:48:50;99497.53;;;10.75;55.79
40574;BME280;26283;49.020;8.644;2023-03-15T13:51:22;99489.44;;;10.75;55.77
40574;BME280;26283;49.020;8.644;2023-03-15T13:53:52;99491.09;;;10.76;55.79
40574;BME280;26283;49.020;8.644;2023-03-15T13:56:44;99486.75;;;10.75;55.77
40574;BME280;26283;49.020;8.644;2023-03-15T13:59:11;99489.44;;;10.75;55.78
40574;BME280;26283;49.020;8.644;2023-03-15T14:01:38;99484.06;;;10.75;55.75
40574;BME280;26283;49.020;8.644;2023-03-15T14:04:09;99483.22;;;10.75;55.75
40574;BME280;26283;49.020;8.644;2023-03-15T14:06:36;99478.66;;;10.75;55.75
40574;BME280;26283;49.020;8.644;2023-03-15T14:09:23;99478.66;;;10.75;55.76
40574;BME280;26283;49.020;8.644;2023-03-15T14:12:01;99477.63;;;10.76;55.76